Adsdean, United Kingdom
Current Conditions -  °F | °C
As of 7:50 PM on Monday 22 Dec 2014 (Local Time) from EGKA Reporting Station
Broken Clouds Broken Clouds  
Wind Chill: 52°   Ceiling: 2200
Heat Index: 52°   Visibility: 6mi
Dew Point: 46°   Wind: 22mph
Humidity: 82%   Direction: 240°WSW
Pressure: 30.12"   Gusts: NA
Location:  50.86°N, 0.78°W
Report Text: EGKA 221950Z 24019KT 9999 BKN022 11/08 Q1020
Loading
Personal Weather Stations






























Interactive Weather Map New forecast layout! Learn more

10-Day Weather Forecast

Advertisements
Track Severe Weather on mobile